Costa Luminosa — ICGU — position and weather

sailwx.info

Track history (hours):
 
Tides and Currents Weather Stations Pressure Air Temp Water Temp Dewpoint Dewpoint Depression Visibility Wind Speed Wind Dir Waves Ship Positions

Costa Luminosa

Last reported at 2020-Jan-26 05:30 UTC. Time now 2020-Jan-28 20:07 UTC.
Position N 26°09' W 079°47'.

Length 294 m; draft 8.1 m.

Type: Passenger vessel. MMSI: 247257900.

Date/timePositionNaut miles runAvg speedWind from/ knotsBaromVisibWave heightAir tempDewpointWater temp
2020-Jan-26 05:30N 26°09' W 079°47'716.3
2020-Jan-26 05:05N 26°07' W 079°54'12 3.2
2020-Jan-26 01:28N 26°05' W 080°07'0 6.2
2020-Jan-26 01:28N 26°05' W 080°07'0 0.1
2020-Jan-26 01:00N 26°05' W 080°07'0 0.8
2020-Jan-26 00:55N 26°05' W 080°07'0 0.0
2020-Jan-25 22:28N 26°05' W 080°07'0 0.0
2020-Jan-25 18:30N 26°05' W 080°07'0 2.7
2020-Jan-25 18:28N 26°05' W 080°07'0 0.0
2020-Jan-25 17:58N 26°05' W 080°07'30355.6
2020-Jan-25 17:53N 25°50' W 079°38'3079.6
2020-Jan-25 17:30N 26°05' W 080°07'0 2.3
2020-Jan-25 17:28N 26°05' W 080°07'0 0.1
2020-Jan-25 15:59N 26°05' W 080°07'0 3.4
2020-Jan-25 15:58N 26°05' W 080°07'0 0.0
2020-Jan-25 15:01N 26°05' W 080°07'0 0.8
2020-Jan-25 14:58N 26°05' W 080°07'0 0.0
2020-Jan-25 13:28N 26°05' W 080°07'0 0.3
2020-Jan-25 13:22N 26°05' W 080°07'0 0.0
2020-Jan-25 12:28N 26°05' W 080°07'0 0.7
2020-Jan-25 12:23N 26°05' W 080°07'0 0.1
2020-Jan-25 12:00N 26°05' W 080°07'0 2.3
2020-Jan-25 11:58N 26°05' W 080°07'0 0.2
2020-Jan-25 11:30N 26°05' W 080°07'0 2.8
2020-Jan-25 11:28N 26°05' W 080°07'15 4.5
2020-Jan-25 08:00N 26°07' W 079°50'917.1
2020-Jan-25 07:30N 26°08' W 079°40'21 0.9
2020-Jan-24 07:30N 25°52' W 079°24'1019.2
2020-Jan-24 07:00N 25°44' W 079°29'61917.2
2020-Jan-22 18:58N 21°21' W 089°41'0 0.0
2020-Jan-22 14:58N 21°21' W 089°41'0 0.0
2020-Jan-22 12:58N 21°21' W 089°41'19 9.6
2020-Jan-22 10:58N 21°38' W 089°31'15910.9
2020-Jan-21 20:24N 20°29' W 086°59'0 0.0
2020-Jan-21 12:57N 20°29' W 086°59'5 3.6
2020-Jan-21 11:30N 20°27' W 087°04'24917.1
2020-Jan-20 20:58N 16°20' W 086°30'0 0.0
2020-Jan-20 18:28N 16°20' W 086°30'0 0.0
2020-Jan-20 16:58N 16°20' W 086°30'0 0.0
2020-Jan-20 14:58N 16°20' W 086°30'0 0.0
2020-Jan-20 13:28N 16°20' W 086°30'1 0.5
2020-Jan-20 12:00N 16°19' W 086°30'1212.1
2020-Jan-20 11:00N 16°18' W 086°17'  
Track history (hours):
 
Tides and Currents Weather Stations Pressure Air Temp Water Temp Dewpoint Dewpoint Depression Visibility Wind Speed Wind Dir Waves Ship Positions

Costa Luminosa

Last reported at 2020-Jan-26 05:30 UTC. Time now 2020-Jan-28 20:07 UTC.
Position N 26°09' W 079°47'.

Length 294 m; draft 8.1 m.

Type: Passenger vessel. MMSI: 247257900.

Date/timePositionNaut miles runAvg speedWind from/ knotsBaromVisibWave heightAir tempDewpointWater temp
2020-Jan-26 05:30N 26°09' W 079°47'716.3
2020-Jan-26 05:05N 26°07' W 079°54'12 3.2
2020-Jan-26 01:28N 26°05' W 080°07'0 6.2
2020-Jan-26 01:28N 26°05' W 080°07'0 0.1
2020-Jan-26 01:00N 26°05' W 080°07'0 0.8
2020-Jan-26 00:55N 26°05' W 080°07'0 0.0
2020-Jan-25 22:28N 26°05' W 080°07'0 0.0
2020-Jan-25 18:30N 26°05' W 080°07'0 2.7
2020-Jan-25 18:28N 26°05' W 080°07'0 0.0
2020-Jan-25 17:58N 26°05' W 080°07'30355.6
2020-Jan-25 17:53N 25°50' W 079°38'3079.6
2020-Jan-25 17:30N 26°05' W 080°07'0 2.3
2020-Jan-25 17:28N 26°05' W 080°07'0 0.1
2020-Jan-25 15:59N 26°05' W 080°07'0 3.4
2020-Jan-25 15:58N 26°05' W 080°07'0 0.0
2020-Jan-25 15:01N 26°05' W 080°07'0 0.8
2020-Jan-25 14:58N 26°05' W 080°07'0 0.0
2020-Jan-25 13:28N 26°05' W 080°07'0 0.3
2020-Jan-25 13:22N 26°05' W 080°07'0 0.0
2020-Jan-25 12:28N 26°05' W 080°07'0 0.7
2020-Jan-25 12:23N 26°05' W 080°07'0 0.1
2020-Jan-25 12:00N 26°05' W 080°07'0 2.3
2020-Jan-25 11:58N 26°05' W 080°07'0 0.2
2020-Jan-25 11:30N 26°05' W 080°07'0 2.8
2020-Jan-25 11:28N 26°05' W 080°07'15 4.5
2020-Jan-25 08:00N 26°07' W 079°50'917.1
2020-Jan-25 07:30N 26°08' W 079°40'21 0.9
2020-Jan-24 07:30N 25°52' W 079°24'1019.2
2020-Jan-24 07:00N 25°44' W 079°29'61917.2
2020-Jan-22 18:58N 21°21' W 089°41'0 0.0
2020-Jan-22 14:58N 21°21' W 089°41'0 0.0
2020-Jan-22 12:58N 21°21' W 089°41'19 9.6
2020-Jan-22 10:58N 21°38' W 089°31'15910.9
2020-Jan-21 20:24N 20°29' W 086°59'0 0.0
2020-Jan-21 12:57N 20°29' W 086°59'5 3.6
2020-Jan-21 11:30N 20°27' W 087°04'24917.1
2020-Jan-20 20:58N 16°20' W 086°30'0 0.0
2020-Jan-20 18:28N 16°20' W 086°30'0 0.0
2020-Jan-20 16:58N 16°20' W 086°30'0 0.0
2020-Jan-20 14:58N 16°20' W 086°30'0 0.0
2020-Jan-20 13:28N 16°20' W 086°30'1 0.5
2020-Jan-20 12:00N 16°19' W 086°30'1212.1
2020-Jan-20 11:00N 16°18' W 086°17'  

Dump ship's entire track history